sensor_id;sensor_type;location;lat;lon;timestamp;pressure;altitude;pressure_sealevel;temperature;humidity
49342;BME280;35210;41.606;-87.602;2022-08-06T00:00:40;99612.03;;;30.93;74.90
49342;BME280;35210;41.606;-87.602;2022-08-06T00:03:09;99616.47;;;30.99;74.72
49342;BME280;35210;41.606;-87.602;2022-08-06T00:05:37;99611.50;;;30.80;76.67
49342;BME280;35210;41.606;-87.602;2022-08-06T00:08:07;99615.59;;;30.65;77.17
49342;BME280;35210;41.606;-87.602;2022-08-06T00:10:35;99612.78;;;30.60;76.88
49342;BME280;35210;41.606;-87.602;2022-08-06T00:13:04;99600.50;;;30.75;76.80
49342;BME280;35210;41.606;-87.602;2022-08-06T00:15:33;99604.09;;;30.92;76.14
49342;BME280;35210;41.606;-87.602;2022-08-06T00:18:01;99601.44;;;30.97;75.24
49342;BME280;35210;41.606;-87.602;2022-08-06T00:20:29;99598.53;;;30.87;76.23
49342;BME280;35210;41.606;-87.602;2022-08-06T00:22:58;99604.25;;;31.02;75.62
49342;BME280;35210;41.606;-87.602;2022-08-06T00:25:28;99605.91;;;30.86;75.87
49342;BME280;35210;41.606;-87.602;2022-08-06T00:28:03;99595.66;;;30.93;76.30
49342;BME280;35210;41.606;-87.602;2022-08-06T00:30:35;99604.22;;;30.68;76.85
49342;BME280;35210;41.606;-87.602;2022-08-06T00:33:03;99600.50;;;30.75;77.05
49342;BME280;35210;41.606;-87.602;2022-08-06T00:35:36;99600.22;;;30.59;77.73
49342;BME280;35210;41.606;-87.602;2022-08-06T00:38:13;99597.59;;;30.64;77.48
49342;BME280;35210;41.606;-87.602;2022-08-06T00:40:44;99603.13;;;30.69;77.68
49342;BME280;35210;41.606;-87.602;2022-08-06T00:43:13;99604.53;;;30.72;77.15
49342;BME280;35210;41.606;-87.602;2022-08-06T00:45:41;99591.25;;;30.76;76.78
49342;BME280;35210;41.606;-87.602;2022-08-06T00:48:10;99593.72;;;30.77;76.62
49342;BME280;35210;41.606;-87.602;2022-08-06T00:50:40;99596.31;;;30.84;76.32
49342;BME280;35210;41.606;-87.602;2022-08-06T00:53:08;99595.31;;;30.90;76.65
49342;BME280;35210;41.606;-87.602;2022-08-06T00:55:36;99600.88;;;30.95;75.99
49342;BME280;35210;41.606;-87.602;2022-08-06T00:58:06;99608.63;;;30.86;76.24
49342;BME280;35210;41.606;-87.602;2022-08-06T01:00:34;99605.75;;;30.93;76.09
49342;BME280;35210;41.606;-87.602;2022-08-06T01:03:03;99599.88;;;31.01;75.63
49342;BME280;35210;41.606;-87.602;2022-08-06T01:05:31;99599.47;;;30.92;75.31
49342;BME280;35210;41.606;-87.602;2022-08-06T01:07:59;99597.56;;;30.93;75.24
49342;BME280;35210;41.606;-87.602;2022-08-06T01:10:32;99598.06;;;30.90;75.80
49342;BME280;35210;41.606;-87.602;2022-08-06T01:13:07;99607.38;;;30.94;75.76
49342;BME280;35210;41.606;-87.602;2022-08-06T01:15:40;99607.38;;;30.94;75.92
49342;BME280;35210;41.606;-87.602;2022-08-06T01:18:14;99617.22;;;30.95;76.09
49342;BME280;35210;41.606;-87.602;2022-08-06T01:20:52;99631.69;;;30.95;76.07
49342;BME280;35210;41.606;-87.602;2022-08-06T01:23:42;99643.41;;;30.96;76.12
49342;BME280;35210;41.606;-87.602;2022-08-06T01:26:27;99647.47;;;30.93;76.41
49342;BME280;35210;41.606;-87.602;2022-08-06T01:29:02;99653.75;;;30.94;76.47
49342;BME280;35210;41.606;-87.602;2022-08-06T01:31:36;99649.59;;;30.91;76.13
49342;BME280;35210;41.606;-87.602;2022-08-06T01:34:10;99657.22;;;30.89;76.44
49342;BME280;35210;41.606;-87.602;2022-08-06T01:36:46;99655.78;;;30.87;76.53
49342;BME280;35210;41.606;-87.602;2022-08-06T01:39:18;99657.94;;;30.85;76.76
49342;BME280;35210;41.606;-87.602;2022-08-06T01:41:51;99663.06;;;30.81;76.76
49342;BME280;35210;41.606;-87.602;2022-08-06T01:44:24;99663.06;;;30.81;76.78
49342;BME280;35210;41.606;-87.602;2022-08-06T01:46:58;99667.34;;;30.77;77.26
49342;BME280;35210;41.606;-87.602;2022-08-06T01:49:30;99664.19;;;30.68;77.56
49342;BME280;35210;41.606;-87.602;2022-08-06T01:52:01;99673.31;;;30.62;77.83
49342;BME280;35210;41.606;-87.602;2022-08-06T01:54:34;99684.94;;;30.58;77.92
49342;BME280;35210;41.606;-87.602;2022-08-06T01:57:04;99683.16;;;30.52;78.45
49342;BME280;35210;41.606;-87.602;2022-08-06T01:59:41;99684.47;;;30.49;78.50
49342;BME280;35210;41.606;-87.602;2022-08-06T02:02:15;99682.22;;;30.46;78.66
49342;BME280;35210;41.606;-87.602;2022-08-06T02:04:46;99689.34;;;30.47;79.01
49342;BME280;35210;41.606;-87.602;2022-08-06T02:07:17;99689.34;;;30.47;78.68
49342;BME280;35210;41.606;-87.602;2022-08-06T02:09:49;99686.06;;;30.45;78.76
49342;BME280;35210;41.606;-87.602;2022-08-06T02:12:23;99685.22;;;30.45;79.25
49342;BME280;35210;41.606;-87.602;2022-08-06T02:14:55;99688.69;;;30.40;79.63
49342;BME280;35210;41.606;-87.602;2022-08-06T02:17:29;99696.50;;;30.36;79.86
49342;BME280;35210;41.606;-87.602;2022-08-06T02:19:59;99701.38;;;30.34;80.26
49342;BME280;35210;41.606;-87.602;2022-08-06T02:22:29;99707.28;;;30.31;81.02
49342;BME280;35210;41.606;-87.602;2022-08-06T02:25:02;99703.75;;;30.31;81.12
49342;BME280;35210;41.606;-87.602;2022-08-06T02:27:32;99710.25;;;30.30;81.91
49342;BME280;35210;41.606;-87.602;2022-08-06T02:30:04;99714.28;;;30.27;82.63
49342;BME280;35210;41.606;-87.602;2022-08-06T02:32:33;99712.88;;;30.25;83.20
49342;BME280;35210;41.606;-87.602;2022-08-06T02:35:01;99708.47;;;30.24;83.21
49342;BME280;35210;41.606;-87.602;2022-08-06T02:37:33;99712.50;;;30.21;83.76
49342;BME280;35210;41.606;-87.602;2022-08-06T02:40:08;99709.44;;;30.18;84.03
49342;BME280;35210;41.606;-87.602;2022-08-06T02:42:41;99707.78;;;30.17;84.21
49342;BME280;35210;41.606;-87.602;2022-08-06T02:45:17;99715.84;;;30.12;84.57
49342;BME280;35210;41.606;-87.602;2022-08-06T02:47:53;99719.03;;;30.08;85.29
49342;BME280;35210;41.606;-87.602;2022-08-06T02:50:34;99724.72;;;30.07;85.45
49342;BME280;35210;41.606;-87.602;2022-08-06T02:53:04;99718.69;;;30.05;85.21
49342;BME280;35210;41.606;-87.602;2022-08-06T02:55:37;99718.34;;;30.01;85.34
49342;BME280;35210;41.606;-87.602;2022-08-06T02:58:11;99722.13;;;30.00;85.10
49342;BME280;35210;41.606;-87.602;2022-08-06T03:00:44;99723.03;;;29.94;85.66
49342;BME280;35210;41.606;-87.602;2022-08-06T03:03:16;99721.03;;;29.90;86.17
49342;BME280;35210;41.606;-87.602;2022-08-06T03:05:45;99723.41;;;29.86;86.13
49342;BME280;35210;41.606;-87.602;2022-08-06T03:08:17;99723.88;;;29.83;86.36
49342;BME280;35210;41.606;-87.602;2022-08-06T03:10:47;99723.50;;;29.80;86.95
49342;BME280;35210;41.606;-87.602;2022-08-06T03:13:17;99729.19;;;29.78;86.87
49342;BME280;35210;41.606;-87.602;2022-08-06T03:15:50;99711.19;;;29.77;87.08
49342;BME280;35210;41.606;-87.602;2022-08-06T03:18:21;99713.31;;;29.75;87.30
49342;BME280;35210;41.606;-87.602;2022-08-06T03:20:52;99705.06;;;29.70;87.30
49342;BME280;35210;41.606;-87.602;2022-08-06T03:23:21;99699.63;;;29.70;87.36
49342;BME280;35210;41.606;-87.602;2022-08-06T03:25:50;99711.59;;;29.69;87.52
49342;BME280;35210;41.606;-87.602;2022-08-06T03:28:20;99719.38;;;29.65;87.72
49342;BME280;35210;41.606;-87.602;2022-08-06T03:30:50;99724.00;;;29.65;87.79
49342;BME280;35210;41.606;-87.602;2022-08-06T03:33:19;99724.81;;;29.65;87.68
49342;BME280;35210;41.606;-87.602;2022-08-06T03:35:48;99716.53;;;29.60;87.97
49342;BME280;35210;41.606;-87.602;2022-08-06T03:38:19;99719.50;;;29.59;88.01
49342;BME280;35210;41.606;-87.602;2022-08-06T03:40:49;99717.25;;;29.56;87.76
49342;BME280;35210;41.606;-87.602;2022-08-06T03:43:17;99717.72;;;29.53;88.03
49342;BME280;35210;41.606;-87.602;2022-08-06T03:45:53;99712.13;;;29.48;88.30
49342;BME280;35210;41.606;-87.602;2022-08-06T03:48:27;99713.69;;;29.43;88.43
49342;BME280;35210;41.606;-87.602;2022-08-06T03:50:57;99698.41;;;29.42;88.67
49342;BME280;35210;41.606;-87.602;2022-08-06T03:53:31;99693.03;;;29.36;89.11
49342;BME280;35210;41.606;-87.602;2022-08-06T03:56:04;99683.47;;;29.33;89.54
49342;BME280;35210;41.606;-87.602;2022-08-06T03:58:37;99673.06;;;29.30;89.62
49342;BME280;35210;41.606;-87.602;2022-08-06T04:01:12;99680.63;;;29.28;89.69
49342;BME280;35210;41.606;-87.602;2022-08-06T04:03:42;99672.09;;;29.25;89.74
49342;BME280;35210;41.606;-87.602;2022-08-06T04:06:12;99679.06;;;29.21;90.37
49342;BME280;35210;41.606;-87.602;2022-08-06T04:08:41;99678.69;;;29.17;90.39
49342;BME280;35210;41.606;-87.602;2022-08-06T04:11:11;99674.31;;;29.16;90.68
49342;BME280;35210;41.606;-87.602;2022-08-06T04:13:40;99678.34;;;29.14;90.55
49342;BME280;35210;41.606;-87.602;2022-08-06T04:16:14;99672.53;;;29.10;90.92
49342;BME280;35210;41.606;-87.602;2022-08-06T04:18:44;99660.22;;;29.07;91.01
49342;BME280;35210;41.606;-87.602;2022-08-06T04:21:16;99658.34;;;29.08;90.97
49342;BME280;35210;41.606;-87.602;2022-08-06T04:23:46;99668.84;;;29.04;90.95
49342;BME280;35210;41.606;-87.602;2022-08-06T04:26:17;99665.53;;;29.02;90.94
49342;BME280;35210;41.606;-87.602;2022-08-06T04:28:49;99678.75;;;28.99;90.50
49342;BME280;35210;41.606;-87.602;2022-08-06T04:31:20;99674.50;;;28.91;90.66
49342;BME280;35210;41.606;-87.602;2022-08-06T04:33:49;99678.53;;;28.89;90.18
49342;BME280;35210;41.606;-87.602;2022-08-06T04:36:19;99674.00;;;28.83;89.91
49342;BME280;35210;41.606;-87.602;2022-08-06T04:38:48;99671.72;;;28.79;89.77
49342;BME280;35210;41.606;-87.602;2022-08-06T04:41:17;99673.84;;;28.77;89.59
49342;BME280;35210;41.606;-87.602;2022-08-06T04:43:46;99668.88;;;28.74;89.70
49342;BME280;35210;41.606;-87.602;2022-08-06T04:46:15;99670.53;;;28.75;89.68
49342;BME280;35210;41.606;-87.602;2022-08-06T04:48:46;99665.09;;;28.75;89.69
49342;BME280;35210;41.606;-87.602;2022-08-06T04:51:14;99681.41;;;28.75;89.85
49342;BME280;35210;41.606;-87.602;2022-08-06T04:53:42;99683.13;;;28.70;90.18
49342;BME280;35210;41.606;-87.602;2022-08-06T04:56:10;99689.88;;;28.67;90.10
49342;BME280;35210;41.606;-87.602;2022-08-06T04:58:38;99704.50;;;28.66;90.28
49342;BME280;35210;41.606;-87.602;2022-08-06T05:01:07;99702.84;;;28.65;89.58
49342;BME280;35210;41.606;-87.602;2022-08-06T05:03:36;99712.06;;;28.64;89.55
49342;BME280;35210;41.606;-87.602;2022-08-06T05:06:09;99703.31;;;28.62;89.12
49342;BME280;35210;41.606;-87.602;2022-08-06T05:08:41;99716.28;;;28.60;89.14
49342;BME280;35210;41.606;-87.602;2022-08-06T05:11:13;99718.41;;;28.58;89.19
49342;BME280;35210;41.606;-87.602;2022-08-06T05:13:45;99712.97;;;28.58;89.35
49342;BME280;35210;41.606;-87.602;2022-08-06T05:16:15;99724.91;;;28.57;89.18
49342;BME280;35210;41.606;-87.602;2022-08-06T05:18:49;99719.47;;;28.57;89.17
49342;BME280;35210;41.606;-87.602;2022-08-06T05:21:23;99733.50;;;28.54;89.28
49342;BME280;35210;41.606;-87.602;2022-08-06T05:23:53;99729.34;;;28.52;89.56
49342;BME280;35210;41.606;-87.602;2022-08-06T05:26:23;99731.84;;;28.53;89.14
49342;BME280;35210;41.606;-87.602;2022-08-06T05:28:52;99736.44;;;28.53;89.24
49342;BME280;35210;41.606;-87.602;2022-08-06T05:31:29;99735.00;;;28.50;89.30
49342;BME280;35210;41.606;-87.602;2022-08-06T05:33:58;99729.56;;;28.50;89.31
49342;BME280;35210;41.606;-87.602;2022-08-06T05:36:28;99737.94;;;28.49;89.64
49342;BME280;35210;41.606;-87.602;2022-08-06T05:38:56;99739.00;;;28.48;89.50
49342;BME280;35210;41.606;-87.602;2022-08-06T05:41:25;99736.97;;;28.43;89.51
49342;BME280;35210;41.606;-87.602;2022-08-06T05:43:55;99738.25;;;28.40;89.36
49342;BME280;35210;41.606;-87.602;2022-08-06T05:46:25;99747.06;;;28.36;89.66
49342;BME280;35210;41.606;-87.602;2022-08-06T05:49:03;99743.00;;;28.27;90.09
49342;BME280;35210;41.606;-87.602;2022-08-06T05:51:38;99755.97;;;28.25;90.22
49342;BME280;35210;41.606;-87.602;2022-08-06T05:54:17;99750.16;;;28.21;90.14
49342;BME280;35210;41.606;-87.602;2022-08-06T05:56:49;99746.63;;;28.21;90.13
49342;BME280;35210;41.606;-87.602;2022-08-06T05:59:22;99752.28;;;28.19;90.28
49342;BME280;35210;41.606;-87.602;2022-08-06T06:01:51;99750.22;;;28.14;90.59
49342;BME280;35210;41.606;-87.602;2022-08-06T06:04:20;99746.75;;;28.07;90.81
49342;BME280;35210;41.606;-87.602;2022-08-06T06:06:51;99753.22;;;28.06;90.77
49342;BME280;35210;41.606;-87.602;2022-08-06T06:09:19;99753.22;;;28.06;91.01
49342;BME280;35210;41.606;-87.602;2022-08-06T06:11:47;99751.56;;;28.05;90.65
49342;BME280;35210;41.606;-87.602;2022-08-06T06:14:30;99753.69;;;28.03;90.96
49342;BME280;35210;41.606;-87.602;2022-08-06T06:17:15;99751.56;;;28.05;91.03
49342;BME280;35210;41.606;-87.602;2022-08-06T06:19:54;99740.09;;;28.03;91.03
49342;BME280;35210;41.606;-87.602;2022-08-06T06:22:28;99743.66;;;28.04;91.11
49342;BME280;35210;41.606;-87.602;2022-08-06T06:25:04;99735.72;;;28.02;90.69
49342;BME280;35210;41.606;-87.602;2022-08-06T06:27:41;99737.84;;;28.00;90.97
49342;BME280;35210;41.606;-87.602;2022-08-06T06:30:16;99730.16;;;27.97;90.51
49342;BME280;35210;41.606;-87.602;2022-08-06T06:32:50;99717.00;;;27.94;90.84
49342;BME280;35210;41.606;-87.602;2022-08-06T06:35:29;99719.97;;;27.93;91.05
49342;BME280;35210;41.606;-87.602;2022-08-06T06:38:20;99710.00;;;27.87;91.31
49342;BME280;35210;41.606;-87.602;2022-08-06T06:40:55;99700.41;;;27.84;91.79
49342;BME280;35210;41.606;-87.602;2022-08-06T06:43:39;99695.28;;;27.76;91.86
49342;BME280;35210;41.606;-87.602;2022-08-06T06:46:14;99698.44;;;27.73;92.26
49342;BME280;35210;41.606;-87.602;2022-08-06T06:48:47;99700.97;;;27.68;92.57
49342;BME280;35210;41.606;-87.602;2022-08-06T06:51:22;99690.56;;;27.65;92.81
49342;BME280;35210;41.606;-87.602;2022-08-06T06:53:55;99690.97;;;27.68;92.39
49342;BME280;35210;41.606;-87.602;2022-08-06T06:56:28;99693.91;;;27.67;92.64
49342;BME280;35210;41.606;-87.602;2022-08-06T06:59:01;99701.03;;;27.61;92.87
49342;BME280;35210;41.606;-87.602;2022-08-06T07:01:31;99703.91;;;27.66;92.77
49342;BME280;35210;41.606;-87.602;2022-08-06T07:04:03;99702.69;;;27.62;92.69
49342;BME280;35210;41.606;-87.602;2022-08-06T07:06:35;99709.50;;;27.46;93.51
49342;BME280;35210;41.606;-87.602;2022-08-06T07:09:06;99719.13;;;27.42;93.89
49342;BME280;35210;41.606;-87.602;2022-08-06T07:11:38;99711.00;;;27.42;93.88
49342;BME280;35210;41.606;-87.602;2022-08-06T07:14:07;99712.53;;;27.32;94.15
49342;BME280;35210;41.606;-87.602;2022-08-06T07:16:36;99716.28;;;27.31;94.81
49342;BME280;35210;41.606;-87.602;2022-08-06T07:19:06;99725.88;;;27.33;94.33
49342;BME280;35210;41.606;-87.602;2022-08-06T07:21:36;99731.28;;;27.33;94.10
49342;BME280;35210;41.606;-87.602;2022-08-06T07:24:08;99735.84;;;27.39;94.26
49342;BME280;35210;41.606;-87.602;2022-08-06T07:26:39;99737.38;;;27.29;94.18
49342;BME280;35210;41.606;-87.602;2022-08-06T07:29:11;99734.50;;;27.24;94.69
49342;BME280;35210;41.606;-87.602;2022-08-06T07:31:40;99739.25;;;27.28;94.97
49342;BME280;35210;41.606;-87.602;2022-08-06T07:34:09;99742.59;;;27.30;94.55
49342;BME280;35210;41.606;-87.602;2022-08-06T07:36:44;99751.94;;;27.34;94.46
49342;BME280;35210;41.606;-87.602;2022-08-06T07:39:20;99752.13;;;27.39;93.79
49342;BME280;35210;41.606;-87.602;2022-08-06T07:41:51;99743.53;;;27.42;93.91
49342;BME280;35210;41.606;-87.602;2022-08-06T07:44:21;99737.91;;;27.44;93.60
49342;BME280;35210;41.606;-87.602;2022-08-06T07:46:55;99752.91;;;27.46;93.45
49342;BME280;35210;41.606;-87.602;2022-08-06T07:49:29;99752.91;;;27.46;93.59
49342;BME280;35210;41.606;-87.602;2022-08-06T07:52:04;99758.31;;;27.46;93.45
49342;BME280;35210;41.606;-87.602;2022-08-06T07:54:35;99754.56;;;27.47;93.85
49342;BME280;35210;41.606;-87.602;2022-08-06T07:57:05;99761.03;;;27.46;93.19
49342;BME280;35210;41.606;-87.602;2022-08-06T07:59:34;99761.88;;;27.47;93.24
49342;BME280;35210;41.606;-87.602;2022-08-06T08:02:04;99768.94;;;27.48;93.42
49342;BME280;35210;41.606;-87.602;2022-08-06T08:04:34;99768.34;;;27.46;93.65
49342;BME280;35210;41.606;-87.602;2022-08-06T08:07:19;99765.00;;;27.44;93.55
49342;BME280;35210;41.606;-87.602;2022-08-06T08:09:50;99757.84;;;27.49;93.38
49342;BME280;35210;41.606;-87.602;2022-08-06T08:12:19;99749.72;;;27.49;93.24
49342;BME280;35210;41.606;-87.602;2022-08-06T08:14:48;99753.72;;;27.47;93.65
49342;BME280;35210;41.606;-87.602;2022-08-06T08:17:17;99752.44;;;27.49;93.20
49342;BME280;35210;41.606;-87.602;2022-08-06T08:19:45;99752.91;;;27.46;93.51
49342;BME280;35210;41.606;-87.602;2022-08-06T08:22:16;99746.88;;;27.44;93.62
49342;BME280;35210;41.606;-87.602;2022-08-06T08:24:46;99759.19;;;27.40;93.52
49342;BME280;35210;41.606;-87.602;2022-08-06T08:27:16;99761.47;;;27.43;93.81
49342;BME280;35210;41.606;-87.602;2022-08-06T08:29:44;99767.94;;;27.42;93.70
49342;BME280;35210;41.606;-87.602;2022-08-06T08:32:15;99779.22;;;27.39;93.81
49342;BME280;35210;41.606;-87.602;2022-08-06T08:34:43;99781.72;;;27.41;93.56
49342;BME280;35210;41.606;-87.602;2022-08-06T08:37:11;99771.72;;;27.41;93.53
49342;BME280;35210;41.606;-87.602;2022-08-06T08:39:40;99776.09;;;27.42;93.67
49342;BME280;35210;41.606;-87.602;2022-08-06T08:42:11;99772.31;;;27.43;93.79
49342;BME280;35210;41.606;-87.602;2022-08-06T08:44:44;99768.78;;;27.43;94.00
49342;BME280;35210;41.606;-87.602;2022-08-06T08:47:14;99773.38;;;27.42;93.84
49342;BME280;35210;41.606;-87.602;2022-08-06T08:49:46;99768.34;;;27.46;93.52
49342;BME280;35210;41.606;-87.602;2022-08-06T08:52:16;99772.53;;;27.42;93.71
49342;BME280;35210;41.606;-87.602;2022-08-06T08:54:48;99765.66;;;27.39;94.30
49342;BME280;35210;41.606;-87.602;2022-08-06T08:57:18;99768.38;;;27.39;94.31
49342;BME280;35210;41.606;-87.602;2022-08-06T08:59:50;99760.06;;;27.34;94.15
49342;BME280;35210;41.606;-87.602;2022-08-06T09:02:19;99758.41;;;27.33;94.47
49342;BME280;35210;41.606;-87.602;2022-08-06T09:04:47;99751.97;;;27.28;94.60
49342;BME280;35210;41.606;-87.602;2022-08-06T09:07:15;99742.84;;;27.22;95.24
49342;BME280;35210;41.606;-87.602;2022-08-06T09:09:44;99749.09;;;27.23;94.92
49342;BME280;35210;41.606;-87.602;2022-08-06T09:12:12;99751.81;;;27.23;94.91
49342;BME280;35210;41.606;-87.602;2022-08-06T09:14:40;99765.13;;;27.24;95.02
49342;BME280;35210;41.606;-87.602;2022-08-06T09:17:11;99763.25;;;27.25;94.89
49342;BME280;35210;41.606;-87.602;2022-08-06T09:19:40;99773.88;;;27.26;95.07
49342;BME280;35210;41.606;-87.602;2022-08-06T09:22:10;99774.50;;;27.28;94.87
49342;BME280;35210;41.606;-87.602;2022-08-06T09:24:39;99774.50;;;27.28;94.40
49342;BME280;35210;41.606;-87.602;2022-08-06T09:27:08;99772.63;;;27.29;94.67
49342;BME280;35210;41.606;-87.602;2022-08-06T09:29:52;99774.72;;;27.27;94.61
49342;BME280;35210;41.606;-87.602;2022-08-06T09:32:38;99772.22;;;27.25;94.51
49342;BME280;35210;41.606;-87.602;2022-08-06T09:35:18;99774.31;;;27.23;94.56
49342;BME280;35210;41.606;-87.602;2022-08-06T09:37:47;99776.41;;;27.21;94.96
49342;BME280;35210;41.606;-87.602;2022-08-06T09:40:17;99771.81;;;27.22;95.08
49342;BME280;35210;41.606;-87.602;2022-08-06T09:42:47;99771.00;;;27.21;95.15
49342;BME280;35210;41.606;-87.602;2022-08-06T09:45:17;99769.34;;;27.20;94.55
49342;BME280;35210;41.606;-87.602;2022-08-06T09:47:48;99771.22;;;27.20;94.81
49342;BME280;35210;41.606;-87.602;2022-08-06T09:50:35;99772.03;;;27.20;94.51
49342;BME280;35210;41.606;-87.602;2022-08-06T09:53:05;99775.41;;;27.15;94.89
49342;BME280;35210;41.606;-87.602;2022-08-06T09:55:33;99781.25;;;27.12;95.10
49342;BME280;35210;41.606;-87.602;2022-08-06T09:58:02;99777.72;;;27.12;95.10
49342;BME280;35210;41.606;-87.602;2022-08-06T10:00:31;99785.84;;;27.12;95.05
49342;BME280;35210;41.606;-87.602;2022-08-06T10:03:04;99788.16;;;27.08;95.14
49342;BME280;35210;41.606;-87.602;2022-08-06T10:05:32;99786.09;;;27.04;95.09
49342;BME280;35210;41.606;-87.602;2022-08-06T10:08:12;99783.00;;;27.00;95.66
49342;BME280;35210;41.606;-87.602;2022-08-06T10:10:49;99781.13;;;27.01;95.26
49342;BME280;35210;41.606;-87.602;2022-08-06T10:13:19;99790.72;;;26.97;95.40
49342;BME280;35210;41.606;-87.602;2022-08-06T10:15:50;99777.56;;;26.94;95.96
49342;BME280;35210;41.606;-87.602;2022-08-06T10:18:37;99779.06;;;26.90;96.50
49342;BME280;35210;41.606;-87.602;2022-08-06T10:21:07;99786.56;;;26.88;96.48
49342;BME280;35210;41.606;-87.602;2022-08-06T10:23:37;99786.78;;;26.86;96.62
49342;BME280;35210;41.606;-87.602;2022-08-06T10:26:09;99785.94;;;26.85;96.91
49342;BME280;35210;41.606;-87.602;2022-08-06T10:28:40;99791.97;;;26.88;96.56
49342;BME280;35210;41.606;-87.602;2022-08-06T10:31:21;99795.75;;;26.87;96.41
49342;BME280;35210;41.606;-87.602;2022-08-06T10:33:59;99793.84;;;26.87;96.45
49342;BME280;35210;41.606;-87.602;2022-08-06T10:36:31;99796.16;;;26.83;96.17
49342;BME280;35210;41.606;-87.602;2022-08-06T10:39:03;99787.41;;;26.81;96.20
49342;BME280;35210;41.606;-87.602;2022-08-06T10:41:32;99788.47;;;26.80;96.23
49342;BME280;35210;41.606;-87.602;2022-08-06T10:44:04;99786.81;;;26.79;96.38
49342;BME280;35210;41.606;-87.602;2022-08-06T10:46:32;99795.53;;;26.81;96.70
49342;BME280;35210;41.606;-87.602;2022-08-06T10:49:02;99799.09;;;26.82;96.45
49342;BME280;35210;41.606;-87.602;2022-08-06T10:51:33;99803.69;;;26.81;96.19
49342;BME280;35210;41.606;-87.602;2022-08-06T10:54:04;99808.69;;;26.78;96.25
49342;BME280;35210;41.606;-87.602;2022-08-06T10:56:33;99809.09;;;26.81;96.18
49342;BME280;35210;41.606;-87.602;2022-08-06T10:59:01;99808.47;;;26.79;96.04
49342;BME280;35210;41.606;-87.602;2022-08-06T11:01:34;99802.00;;;26.80;96.03
49342;BME280;35210;41.606;-87.602;2022-08-06T11:04:19;99793.09;;;26.73;96.82
49342;BME280;35210;41.606;-87.602;2022-08-06T11:07:00;99792.44;;;26.78;96.50
49342;BME280;35210;41.606;-87.602;2022-08-06T11:09:53;99799.56;;;26.72;96.98
49342;BME280;35210;41.606;-87.602;2022-08-06T11:12:39;99800.00;;;26.69;97.51
49342;BME280;35210;41.606;-87.602;2022-08-06T11:15:10;99790.41;;;26.67;97.75
49342;BME280;35210;41.606;-87.602;2022-08-06T11:17:43;99792.28;;;26.66;97.71
49342;BME280;35210;41.606;-87.602;2022-08-06T11:20:37;99802.31;;;26.66;97.71
49342;BME280;35210;41.606;-87.602;2022-08-06T11:23:30;99794.38;;;26.64;97.72
49342;BME280;35210;41.606;-87.602;2022-08-06T11:26:00;99796.47;;;26.62;98.13
49342;BME280;35210;41.606;-87.602;2022-08-06T11:28:56;99792.09;;;26.61;98.37
49342;BME280;35210;41.606;-87.602;2022-08-06T11:31:36;99801.06;;;26.62;98.29
49342;BME280;35210;41.606;-87.602;2022-08-06T11:34:08;99800.84;;;26.63;98.44
49342;BME280;35210;41.606;-87.602;2022-08-06T11:36:52;99797.94;;;26.65;98.16
49342;BME280;35210;41.606;-87.602;2022-08-06T11:39:22;99794.66;;;26.43;100.00
49342;BME280;35210;41.606;-87.602;2022-08-06T11:41:56;99785.91;;;26.47;99.91
49342;BME280;35210;41.606;-87.602;2022-08-06T11:44:27;99788.00;;;26.39;100.00
49342;BME280;35210;41.606;-87.602;2022-08-06T11:47:17;99787.59;;;26.35;100.00
49342;BME280;35210;41.606;-87.602;2022-08-06T11:49:47;99795.09;;;26.33;100.00
49342;BME280;35210;41.606;-87.602;2022-08-06T11:52:42;99791.94;;;26.30;100.00
49342;BME280;35210;41.606;-87.602;2022-08-06T11:55:12;99799.03;;;26.37;100.00
49342;BME280;35210;41.606;-87.602;2022-08-06T11:57:41;99797.59;;;26.35;100.00
49342;BME280;35210;41.606;-87.602;2022-08-06T12:00:15;99788.84;;;26.33;100.00
49342;BME280;35210;41.606;-87.602;2022-08-06T12:02:55;99792.78;;;26.17;100.00
49342;BME280;35210;41.606;-87.602;2022-08-06T12:05:37;99801.13;;;26.15;100.00
49342;BME280;35210;41.606;-87.602;2022-08-06T12:08:18;99796.31;;;26.24;100.00
49342;BME280;35210;41.606;-87.602;2022-08-06T12:14:04;99805.28;;;26.31;100.00
49342;BME280;35210;41.606;-87.602;2022-08-06T12:16:35;99804.84;;;26.47;100.00
49342;BME280;35210;41.606;-87.602;2022-08-06T12:19:10;99796.72;;;26.54;100.00
49342;BME280;35210;41.606;-87.602;2022-08-06T12:21:40;99801.69;;;26.57;100.00
49342;BME280;35210;41.606;-87.602;2022-08-06T12:24:11;99799.19;;;26.62;100.00
49342;BME280;35210;41.606;-87.602;2022-08-06T12:26:40;99795.19;;;26.71;100.00
49342;BME280;35210;41.606;-87.602;2022-08-06T12:29:08;99788.69;;;26.79;100.00
49342;BME280;35210;41.606;-87.602;2022-08-06T12:31:37;99791.59;;;26.77;100.00
49342;BME280;35210;41.606;-87.602;2022-08-06T12:34:06;99789.59;;;26.66;100.00
49342;BME280;35210;41.606;-87.602;2022-08-06T12:36:36;99789.31;;;26.74;100.00
49342;BME280;35210;41.606;-87.602;2022-08-06T12:39:06;99789.94;;;26.76;100.00
49342;BME280;35210;41.606;-87.602;2022-08-06T12:41:38;99788.22;;;26.89;100.00
49342;BME280;35210;41.606;-87.602;2022-08-06T12:44:08;99793.22;;;26.98;100.00
49342;BME280;35210;41.606;-87.602;2022-08-06T12:46:37;99788.56;;;27.12;99.67
49342;BME280;35210;41.606;-87.602;2022-08-06T12:49:05;99791.09;;;27.07;99.85
49342;BME280;35210;41.606;-87.602;2022-08-06T12:51:35;99790.63;;;27.16;98.97
49342;BME280;35210;41.606;-87.602;2022-08-06T12:54:06;99796.00;;;27.23;98.57
49342;BME280;35210;41.606;-87.602;2022-08-06T12:56:39;99801.66;;;27.22;99.68
49342;BME280;35210;41.606;-87.602;2022-08-06T12:59:11;99794.72;;;27.32;98.87
49342;BME280;35210;41.606;-87.602;2022-08-06T13:01:44;99792.19;;;27.37;98.43
49342;BME280;35210;41.606;-87.602;2022-08-06T13:04:13;99801.97;;;27.38;98.57
49342;BME280;35210;41.606;-87.602;2022-08-06T13:06:42;99803.38;;;27.47;98.01
49342;BME280;35210;41.606;-87.602;2022-08-06T13:09:10;99799.97;;;27.52;98.15